Time;durP1;ratioP1;P1;durP2;ratioP2;P2;SDS_P1;SDS_P2;PMS_P1;PMS_P2;Temp;Humidity;BMP_temperature;BMP_pressure;BME280_temperature;BME280_humidity;BME280_pressure;Samples;Min_cycle;Max_cycle;Signal;HPM_P1;HPM_P2
2021/05/06 00:06:35;;;;;;;3.38;1.55;;;;;;;;;;4873914;29;20555;-83
2021/05/06 00:14:21;;;;;;;5.13;1.67;;;;;;;;;;4884346;29;20257;-82
2021/05/06 00:33:19;;;;;;;5.15;1.50;;;;;;;;;;5029558;28;20048;-82
2021/05/06 00:35:45;;;;;;;1.85;1.45;;;;;;;;;;5028815;28;20033;-82
2021/05/06 00:38:24;;;;;;;2.33;1.00;;;;;;;;;;5028320;28;20025;-82
2021/05/06 00:56:43;;;;;;;1.40;0.85;;;;;;;;;;5028495;28;20148;-82
2021/05/06 01:02:00;;;;;;;1.52;0.95;;;;;;;;;;5028699;28;20045;-82
2021/05/06 01:04:39;;;;;;;1.88;1.30;;;;;;;;;;5014857;28;20024;-82
2021/05/06 01:09:43;;;;;;;4.43;1.85;;;;;;;;;;5029288;28;20037;-81
2021/05/06 01:12:09;;;;;;;2.58;1.20;;;;;;;;;;5028303;28;20025;-83
2021/05/06 01:14:35;;;;;;;6.00;1.75;;;;;;;;;;5025929;28;20100;-83
2021/05/06 01:17:01;;;;;;;5.80;2.10;;;;;;;;;;5026685;28;20112;-82
2021/05/06 01:19:28;;;;;;;1.08;0.80;;;;;;;;;;5018731;28;20041;-82
2021/05/06 01:21:55;;;;;;;4.30;1.05;;;9.30;48.10;;;;;;5033478;28;20395;-84
2021/05/06 01:24:21;;;;;;;;;;;9.40;48.40;;;;;;5033529;28;20030;-82
2021/05/06 01:26:57;;;;;;;1.77;1.10;;;;;;;;;;5032298;28;19974;-82
2021/05/06 01:29:33;;;;;;;1.73;1.38;;;;;;;;;;5031721;28;20446;-82
2021/05/06 01:34:46;;;;;;;2.38;1.92;;;;;;;;;;5032188;28;20036;-82
2021/05/06 01:37:43;;;;;;;2.63;1.58;;;;;;;;;;5017081;28;20124;-82
2021/05/06 01:40:19;;;;;;;2.22;0.90;;;;;;;;;;5031484;28;20049;-82
2021/05/06 01:42:49;;;;;;;2.13;1.10;;;;;;;;;;5028954;28;20029;-82
2021/05/06 02:01:06;;;;;;;3.35;1.35;;;9.20;72.70;;;;;;5016158;28;20499;-82
2021/05/06 02:03:32;;;;;;;3.40;1.42;;;;;;;;;;5027758;28;20068;-82
2021/05/06 02:05:58;;;;;;;3.45;1.17;;;;;;;;;;5021599;28;20121;-83
2021/05/06 02:08:24;;;;;;;3.13;1.55;;;;;;;;;;5024879;28;20104;-82
2021/05/06 02:10:53;;;;;;;1.25;1.15;;;;;;;;;;5025919;28;20564;-81
2021/05/06 02:13:19;;;;;;;2.15;1.20;;;;;;;;;;5031810;28;20029;-82
2021/05/06 02:15:57;;;;;;;1.60;1.50;;;;;;;;;;5031925;28;20100;-82
2021/05/06 02:18:24;;;;;;;2.10;1.13;;;;;;;;;;5017017;28;20033;-82
2021/05/06 02:20:51;;;;;;;1.53;1.40;;;;;;;;;;5020004;28;20037;-82
2021/05/06 02:23:17;;;;;;;12.50;3.00;;;;;;;;;;5024618;28;20036;-82
2021/05/06 02:25:44;;;;;;;1.40;1.30;;;;;;;;;;5030879;28;20568;-82
2021/05/06 02:28:10;;;;;;;3.22;1.20;;;;;;;;;;5014499;28;20534;-82
2021/05/06 02:30:36;;;;;;;5.13;2.20;;;;;;;;;;5030356;28;20076;-82
2021/05/06 02:33:05;;;;;;;1.58;1.48;;;9.30;50.00;;;;;;5030488;28;20391;-81
2021/05/06 02:35:32;;;;;;;4.10;2.47;;;;;;;;;;5031335;28;20088;-82
2021/05/06 02:37:58;;;;;;;4.40;1.73;;;;;;;;;;5031002;28;20136;-82
2021/05/06 02:40:23;;;;;;;6.68;3.13;;;;;;;;;;5030862;28;20120;-82
2021/05/06 02:42:50;;;;;;;3.35;1.98;;;;;;;;;;5035179;28;20021;-82
2021/05/06 02:45:16;;;;;;;6.70;1.83;;;;;;;;;;5031922;28;20598;-82
2021/05/06 02:47:42;;;;;;;4.18;1.77;;;;;;;;;;5030047;28;20503;-82
2021/05/06 02:50:14;;;;;;;4.85;1.70;;;;;;;;;;5030604;28;20028;-83
2021/05/06 02:53:25;;;;;;;2.92;1.80;;;;;;;;;;5030891;28;20036;-82
2021/05/06 02:58:22;;;;;;;1.55;1.35;;;;;;;;;;5030311;28;20120;-82
2021/05/06 03:03:42;;;;;;;1.52;1.15;;;9.70;71.60;;;;;;5016252;28;20410;-81
2021/05/06 03:06:11;;;;;;;1.40;1.30;;;10.00;52.60;;;;;;5019062;28;20047;-82
2021/05/06 03:08:39;;;;;;;6.38;1.98;;;;;;;;;;5026326;28;20036;-82
2021/05/06 03:24:03;;;;;;;8.80;2.58;;;9.20;50.60;;;;;;5019354;28;20169;-82
2021/05/06 03:26:31;;;;;;;5.82;1.88;;;;;;;;;;5018968;28;20041;-82
2021/05/06 03:29:05;;;;;;;3.83;2.08;;;;;;;;;;5020243;28;20061;-82
2021/05/06 03:42:30;;;;;;;1.83;1.35;;;9.60;72.70;;;;;;5030654;28;20132;-82
2021/05/06 04:15:05;;;;;;;3.97;2.03;;;;;;;;;;4987115;28;20542;-81
2021/05/06 04:17:47;;;;;;;3.70;2.33;;;;;;;;;;4987032;28;20036;-82
2021/05/06 04:36:21;;;;;;;2.58;1.27;;;;;;;;;;4987298;28;20077;-82
2021/05/06 04:38:46;;;;;;;5.07;2.20;;;10.50;55.90;;;;;;4986633;28;20112;-82
2021/05/06 04:41:44;;;;;;;2.00;1.48;;;;;;;;;;5015934;28;20403;-81
2021/05/06 04:54:40;;;;;;;3.25;1.00;;;;;;;;;;5014684;28;20052;-83
2021/05/06 05:04:59;;;;;;;1.38;0.90;;;;;;;;;;5019226;28;20060;-82
2021/05/06 05:07:34;;;;;;;2.47;1.02;;;;;;;;;;5028498;28;20029;-82
2021/05/06 05:20:41;;;;;;;0.80;0.65;;;;;;;;;;5013817;28;20061;-81
2021/05/06 05:23:31;;;;;;;6.95;1.58;;;;;;;;;;5016361;28;20041;-82
2021/05/06 05:26:09;;;;;;;5.88;0.70;;;;;;;;;;5013228;28;20041;-82
2021/05/06 05:28:35;;;;;;;5.47;1.00;;;;;;;;;;5019152;28;20029;-81
2021/05/06 05:31:01;;;;;;;2.47;0.95;;;;;;;;;;5022109;28;20061;-82
2021/05/06 05:33:30;;;;;;;5.25;1.52;;;;;;;;;;5023104;28;20030;-81
2021/05/06 05:36:16;;;;;;;3.97;1.15;;;;;;;;;;5023560;28;20052;-88
2021/05/06 05:55:14;;;;;;;1.23;0.77;;;;;;;;;;4950369;28;20047;-83
2021/05/06 05:57:40;;;;;;;4.80;1.67;;;;;;;;;;4960033;28;20678;-82
2021/05/06 06:00:06;;;;;;;2.03;1.50;;;;;;;;;;4957381;28;20081;-84
2021/05/06 06:02:35;;;;;;;2.00;1.42;;;;;;;;;;4954111;28;20039;-88
2021/05/06 06:05:01;;;;;;;2.67;1.08;;;;;;;;;;4955005;28;20133;-87
2021/05/06 06:07:28;;;;;;;3.40;1.33;;;;;;;;;;4955961;28;20469;-88
2021/05/06 06:09:54;;;;;;;2.53;1.50;;;;;;;;;;4954725;28;20090;-87
2021/05/06 06:12:20;;;;;;;2.13;0.98;;;;;;;;;;4955425;28;20102;-87
2021/05/06 06:15:05;;;;;;;1.48;1.38;;;;;;;;;;4971703;28;20158;-87
2021/05/06 06:17:42;;;;;;;2.40;1.00;;;;;;;;;;4967506;28;20108;-87
2021/05/06 06:20:08;;;;;;;;;;;12.90;47.70;;;;;;4968410;28;20041;-88
2021/05/06 06:22:34;;;;;;;3.10;0.77;;;;;;;;;;4968034;28;19918;-83
2021/05/06 06:25:03;;;;;;;1.58;0.95;;;;;;;;;;4964803;28;20115;-85
2021/05/06 06:27:31;;;;;;;1.30;1.20;;;13.20;72.80;;;;;;4968425;28;20062;-87
2021/05/06 06:29:59;;;;;;;1.08;0.77;;;;;;;;;;5008178;28;20037;-87
2021/05/06 06:32:25;;;;;;;4.55;2.35;;;;;;;;;;5029021;28;20633;-87
2021/05/06 06:34:51;;;;;;;3.20;1.00;;;;;;;;;;5026616;28;20368;-86
2021/05/06 06:37:17;;;;;;;4.28;1.23;;;;;;;;;;5030404;28;20029;-86
2021/05/06 06:39:43;;;;;;;1.13;0.80;;;;;;;;;;5031432;28;20034;-87
2021/05/06 06:42:10;;;;;;;3.10;1.30;;;12.70;54.50;;;;;;5029230;28;20449;-89
2021/05/06 06:44:37;;;;;;;3.42;1.70;;;;;;;;;;5024845;28;20033;-87
2021/05/06 06:47:05;;;;;;;1.05;0.98;;;12.70;54.20;;;;;;5014861;28;20044;-86
2021/05/06 06:49:31;;;;;;;1.40;0.88;;;;;;;;;;5034267;28;20026;-87
2021/05/06 06:51:58;;;;;;;3.75;1.13;;;;;;;;;;5029408;28;20129;-89
2021/05/06 06:54:25;;;;;;;1.45;1.23;;;;;;;;;;5016398;28;20129;-85
2021/05/06 06:56:51;;;;;;;1.67;1.20;;;;;;;;;;5027925;28;20095;-86
2021/05/06 06:59:17;;;;;;;2.53;1.10;;;;;;;;;;5027045;28;20045;-86
2021/05/06 07:01:44;;;;;;;3.72;1.05;;;;;;;;;;5030500;28;20029;-87
2021/05/06 07:04:10;;;;;;;1.52;1.00;;;13.20;52.00;;;;;;5014562;28;20636;-86
2021/05/06 07:06:37;;;;;;;1.30;1.10;;;;;;;;;;5016501;28;20025;-86
2021/05/06 07:09:03;;;;;;;9.13;2.05;;;;;;;;;;5024014;28;20475;-85
2021/05/06 07:11:29;;;;;;;1.88;1.63;;;;;;;;;;5026157;28;20030;-87
2021/05/06 07:13:55;;;;;;;3.08;1.00;;;;;;;;;;5027619;28;20086;-85
2021/05/06 07:16:21;;;;;;;1.38;0.90;;;;;;;;;;5018792;28;20026;-86
2021/05/06 07:18:47;;;;;;;0.80;0.65;;;;;;;;;;5030582;28;20033;-87
2021/05/06 07:21:13;;;;;;;2.33;1.13;;;;;;;;;;5017812;28;20041;-86
2021/05/06 07:23:39;;;;;;;2.17;1.20;;;;;;;;;;5025425;28;20021;-87
2021/05/06 07:26:05;;;;;;;4.63;1.20;;;;;;;;;;5028344;28;20029;-87
2021/05/06 07:28:31;;;;;;;1.58;1.00;;;;;;;;;;5040007;28;20100;-87
2021/05/06 07:31:00;;;;;;;3.40;1.00;;;;;;;;;;5028394;28;20513;-88
2021/05/06 07:33:27;;;;;;;4.22;1.55;;;;;;;;;;5025627;28;20039;-89
2021/05/06 07:35:54;;;;;;;1.27;0.88;;;;;;;;;;5021430;28;20628;-88
2021/05/06 07:38:20;;;;;;;1.05;0.82;;;;;;;;;;5024213;28;20112;-89
2021/05/06 07:40:46;;;;;;;0.85;0.77;;;;;;;;;;5031094;28;20049;-89
2021/05/06 07:43:12;;;;;;;0.73;0.50;;;13.60;47.70;;;;;;5030163;28;20056;-88
2021/05/06 07:45:38;;;;;;;0.75;0.70;;;;;;;;;;5030720;28;20037;-89
2021/05/06 07:48:04;;;;;;;3.95;0.68;;;;;;;;;;5031489;28;20064;-87
2021/05/06 07:50:30;;;;;;;0.65;0.60;;;;;;;;;;5031959;28;20109;-89
2021/05/06 07:53:14;;;;;;;0.73;0.50;;;;;;;;;;5029484;28;20034;-87
2021/05/06 07:55:40;;;;;;;1.42;0.70;;;;;;;;;;5019236;28;20021;-89
2021/05/06 07:58:06;;;;;;;0.85;0.68;;;;;;;;;;5029839;28;20079;-88
2021/05/06 08:00:34;;;;;;;1.23;0.80;;;;;;;;;;5031263;28;20038;-87
2021/05/06 08:03:01;;;;;;;1.77;0.70;;;;;;;;;;5029980;28;20079;-87
2021/05/06 08:05:27;;;;;;;1.77;0.75;;;;;;;;;;5030771;28;20505;-88
2021/05/06 08:07:53;;;;;;;0.50;0.50;;;;;;;;;;5029746;28;20117;-87
2021/05/06 08:10:19;;;;;;;0.55;0.40;;;;;;;;;;5028064;28;20026;-84
2021/05/06 08:12:45;;;;;;;0.70;0.70;;;;;;;;;;5029250;28;20032;-84
2021/05/06 08:15:12;;;;;;;0.63;0.50;;;;;;;;;;5026146;28;20505;-85
2021/05/06 08:17:39;;;;;;;2.78;0.80;;;17.00;50.50;;;;;;5028381;28;20022;-88
2021/05/06 08:20:07;;;;;;;3.03;0.35;;;;;;;;;;5031917;28;20037;-87
2021/05/06 08:22:33;;;;;;;2.05;0.68;;;;;;;;;;5030130;28;20118;-88
2021/05/06 08:24:59;;;;;;;0.32;0.30;;;;;;;;;;5013835;28;20030;-88
2021/05/06 08:27:25;;;;;;;0.40;0.40;;;;;;;;;;5027752;28;20097;-88
2021/05/06 08:29:52;;;;;;;0.40;0.40;;;;;;;;;;5020991;28;20060;-87
2021/05/06 08:32:18;;;;;;;2.30;0.50;;;;;;;;;;5023192;28;20030;-86
2021/05/06 08:34:44;;;;;;;1.35;1.25;;;;;;;;;;5029947;28;20543;-88
2021/05/06 08:37:10;;;;;;;1.30;0.90;;;;;;;;;;5045078;28;20035;-88
2021/05/06 08:39:36;;;;;;;0.88;0.70;;;;;;;;;;5015299;28;20120;-87
2021/05/06 08:42:02;;;;;;;0.47;0.45;;;;;;;;;;5028995;28;20041;-86
2021/05/06 08:44:32;;;;;;;1.05;0.63;;;;;;;;;;5029017;28;20029;-87
2021/05/06 08:47:04;;;;;;;0.85;0.70;;;;;;;;;;5028236;28;20387;-87
2021/05/06 08:49:31;;;;;;;13.05;0.90;;;;;;;;;;5026735;28;20029;-87
2021/05/06 08:51:58;;;;;;;0.28;0.28;;;14.20;48.20;;;;;;5020224;28;20091;-89
2021/05/06 08:54:24;;;;;;;0.30;0.30;;;;;;;;;;5017226;28;20092;-87
2021/05/06 08:56:50;;;;;;;0.40;0.38;;;;;;;;;;5026088;28;20033;-86
2021/05/06 08:59:16;;;;;;;1.25;0.68;;;;;;;;;;5022793;28;20057;-87
2021/05/06 09:01:42;;;;;;;0.50;0.50;;;;;;;;;;5024308;28;20041;-87
2021/05/06 09:04:08;;;;;;;3.85;0.95;;;;;;;;;;5028689;28;20036;-87
2021/05/06 09:06:34;;;;;;;2.28;0.40;;;;;;;;;;5014869;28;20029;-88
2021/05/06 09:09:03;;;;;;;0.40;0.40;;;;;;;;;;5022661;28;20116;-87
2021/05/06 09:11:29;;;;;;;0.77;0.50;;;;;;;;;;5028772;28;20034;-87
2021/05/06 09:14:03;;;;;;;0.40;0.40;;;14.80;48.20;;;;;;5026618;28;20394;-86
2021/05/06 09:16:36;;;;;;;0.85;0.57;;;;;;;;;;5014284;28;20029;-85
2021/05/06 09:19:04;;;;;;;0.70;0.40;;;15.40;48.90;;;;;;5028107;28;20510;-87
2021/05/06 09:21:34;;;;;;;1.58;1.17;;;15.70;46.40;;;;;;5029389;28;20026;-90
2021/05/06 09:24:22;;;;;;;1.65;0.60;;;15.60;46.70;;;;;;5029556;28;20061;-89
2021/05/06 09:26:48;;;;;;;0.38;0.38;;;;;;;;;;5040784;28;20036;-88
2021/05/06 09:29:35;;;;;;;8.77;0.85;;;15.70;46.90;;;;;;5024338;28;20049;-87
2021/05/06 09:32:08;;;;;;;;;;;15.80;46.50;;;;;;5029340;28;20041;-88
2021/05/06 09:34:39;;;;;;;0.77;0.77;;;16.10;45.70;;;;;;5027381;28;19914;-88
2021/05/06 09:37:07;;;;;;;0.93;0.70;;;16.50;45.00;;;;;;5012391;28;20026;-87
2021/05/06 09:39:34;;;;;;;3.15;0.60;;;;;;;;;;5033070;28;20530;-88
2021/05/06 09:42:10;;;;;;;0.85;0.55;;;17.40;43.00;;;;;;5032813;28;20029;-88
2021/05/06 09:44:53;;;;;;;0.50;0.50;;;17.70;42.30;;;;;;5033072;28;20044;-87
2021/05/06 09:47:19;;;;;;;2.58;1.15;;;;;;;;;;5039914;28;20037;-88
2021/05/06 09:49:45;;;;;;;0.55;0.40;;;;;;;;;;5029553;28;20030;-87
2021/05/06 09:52:11;;;;;;;2.25;0.45;;;;;;;;;;5032286;28;20025;-86
2021/05/06 09:54:50;;;;;;;2.13;0.70;;;19.00;40.00;;;;;;5032313;28;20034;-87
2021/05/06 09:57:35;;;;;;;1.95;0.40;;;19.00;40.20;;;;;;5048003;28;20033;-88
2021/05/06 10:00:21;;;;;;;1.20;0.45;;;19.20;40.00;;;;;;5032101;28;20033;-86
2021/05/06 10:02:47;;;;;;;7.78;0.90;;;;;;;;;;5020653;28;20036;-88
2021/05/06 10:05:16;;;;;;;2.58;0.50;;;19.20;39.70;;;;;;5024244;28;20037;-87
2021/05/06 10:07:53;;;;;;;0.55;0.30;;;;;;;;;;5032048;28;20037;-87
2021/05/06 10:10:19;;;;;;;0.52;0.35;;;;;;;;;;5017339;28;20100;-87
2021/05/06 10:12:45;;;;;;;0.93;0.40;;;;;;;;;;5017013;28;20030;-87
2021/05/06 10:15:13;;;;;;;0.98;0.40;;;19.00;38.50;;;;;;5029977;28;20032;-88
2021/05/06 10:17:39;;;;;;;0.45;0.30;;;;;;;;;;5027809;28;20079;-86
2021/05/06 10:20:06;;;;;;;1.58;0.47;;;;;;;;;;5032170;28;20069;-88
2021/05/06 10:22:33;;;;;;;0.30;0.30;;;18.20;39.30;;;;;;5032895;28;20025;-87
2021/05/06 10:25:07;;;;;;;0.43;0.30;;;17.70;40.40;;;;;;5025555;28;20042;-88
2021/05/06 10:27:34;;;;;;;1.02;0.50;;;17.40;41.20;;;;;;5033298;28;20276;-87
2021/05/06 10:30:03;;;;;;;0.65;0.40;;;17.20;41.20;;;;;;5029899;28;20486;-89
2021/05/06 10:32:31;;;;;;;1.80;0.50;;;17.10;41.90;;;;;;5037232;28;20486;-88
2021/05/06 10:35:05;;;;;;;1.13;0.40;;;16.80;42.10;;;;;;5031834;28;20383;-89
2021/05/06 10:37:37;;;;;;;0.50;0.50;;;16.90;42.90;;;;;;5031331;28;20072;-89
2021/05/06 10:40:23;;;;;;;2.35;0.47;;;17.00;42.70;;;;;;5048033;28;20498;-87
2021/05/06 10:42:53;;;;;;;0.30;0.30;;;17.10;42.70;;;;;;5012073;28;20112;-88
2021/05/06 10:45:21;;;;;;;3.35;0.63;;;;;;;;;;5025988;28;20120;-88
2021/05/06 10:47:50;;;;;;;1.58;0.40;;;;;;;;;;5030860;28;20033;-89
2021/05/06 10:50:16;;;;;;;0.40;0.40;;;;;;;;;;5021200;28;20037;-88
2021/05/06 10:52:44;;;;;;;0.35;0.30;;;17.30;43.00;;;;;;5041966;28;20029;-87
2021/05/06 10:55:11;;;;;;;1.15;0.50;;;17.40;41.20;;;;;;5029895;28;20025;-89
2021/05/06 10:57:38;;;;;;;5.57;0.55;;;17.30;41.90;;;;;;5036133;28;20390;-88
2021/05/06 11:00:26;;;;;;;0.97;0.50;;;17.40;43.00;;;;;;5030040;28;20041;-87
2021/05/06 11:02:57;;;;;;;0.35;0.35;;;;;;;;;;5031910;28;20036;-88
2021/05/06 11:05:27;;;;;;;1.13;1.02;;;17.10;42.50;;;;;;5037082;28;20045;-89
2021/05/06 11:08:06;;;;;;;0.43;0.43;;;;;;;;;;5038575;28;20026;-89
2021/05/06 11:10:32;;;;;;;4.88;0.95;;;;;;;;;;5031526;28;20064;-89
2021/05/06 11:13:01;;;;;;;6.60;1.35;;;;;;;;;;5030493;28;20502;-89
2021/05/06 11:15:28;;;;;;;0.82;0.50;;;16.60;43.40;;;;;;5032469;28;20072;-87
2021/05/06 11:17:55;;;;;;;0.57;0.45;;;;;;;;;;5031474;28;20026;-87
2021/05/06 11:20:22;;;;;;;0.82;0.50;;;;;;;;;;5029674;28;20034;-89
2021/05/06 11:22:54;;;;;;;0.63;0.50;;;16.60;44.50;;;;;;5030319;28;20045;-87
2021/05/06 11:25:30;;;;;;;0.57;0.57;;;;;;;;;;5031004;28;20033;-88
2021/05/06 11:28:03;;;;;;;0.82;0.50;;;16.50;45.90;;;;;;5046530;28;20037;-88
2021/05/06 11:30:36;;;;;;;2.92;0.80;;;16.40;49.30;;;;;;5030142;28;20046;-89
2021/05/06 11:33:18;;;;;;;1.08;0.85;;;;;;;;;;5030146;28;20080;-87
2021/05/06 11:36:02;;;;;;;4.13;1.67;;;16.00;56.40;;;;;;5026664;28;20091;-88
2021/05/06 11:38:37;;;;;;;2.65;0.75;;;;;;;;;;5029652;28;20033;-87
2021/05/06 11:41:03;;;;;;;3.88;0.52;;;;;;;;;;5029541;28;20053;-87
2021/05/06 11:43:29;;;;;;;0.68;0.60;;;;;;;;;;5031278;28;20028;-87
2021/05/06 11:46:08;;;;;;;1.38;0.85;;;15.30;58.30;;;;;;5028750;28;20045;-89
2021/05/06 11:48:44;;;;;;;1.77;0.70;;;15.20;57.10;;;;;;5037485;28;20029;-86
2021/05/06 11:51:21;;;;;;;2.00;0.98;;;15.30;57.80;;;;;;5029412;28;20033;-83
2021/05/06 11:54:07;;;;;;;1.25;0.65;;;15.20;58.40;;;;;;5039004;28;20029;-88
2021/05/06 11:56:34;;;;;;;1.00;0.60;;;15.20;57.70;;;;;;5022219;28;20061;-83
2021/05/06 11:59:01;;;;;;;1.40;1.10;;;;;;;;;;5018728;28;20118;-84
2021/05/06 12:01:28;;;;;;;2.97;0.60;;;;;;;;;;5013404;28;20044;-84
2021/05/06 12:03:55;;;;;;;0.88;0.77;;;;;;;;;;5028747;28;20025;-85
2021/05/06 12:06:29;;;;;;;7.78;1.00;;;15.20;61.70;;;;;;5029744;28;20060;-84
2021/05/06 12:08:55;;;;;;;0.85;0.85;;;;;;;;;;5028184;28;20410;-84
2021/05/06 12:11:21;;;;;;;2.80;1.20;;;;;;;;;;5027104;28;20060;-83
2021/05/06 12:13:49;;;;;;;1.65;0.82;;;;;;;;;;5027868;28;20557;-82
2021/05/06 12:16:16;;;;;;;5.50;0.98;;;;;;;;;;5016787;28;20034;-82
2021/05/06 12:18:42;;;;;;;1.58;0.90;;;;;;;;;;5029183;28;20537;-83
2021/05/06 12:21:08;;;;;;;2.77;0.70;;;;;;;;;;5028727;28;20091;-81
2021/05/06 12:23:35;;;;;;;3.45;1.42;;;;;;;;;;5028454;28;20276;-82
2021/05/06 12:26:01;;;;;;;1.75;0.98;;;;;;;;;;5026458;28;20117;-83
2021/05/06 12:28:28;;;;;;;3.28;1.20;;;;;;;;;;5013610;28;20030;-83
2021/05/06 12:31:00;;;;;;;1.83;0.90;;;15.60;62.60;;;;;;5028206;28;20057;-82
2021/05/06 12:33:32;;;;;;;3.53;1.25;;;;;;;;;;5015355;28;20026;-83
2021/05/06 12:35:58;;;;;;;2.38;1.58;;;;;;;;;;5017132;28;20026;-82
2021/05/06 12:38:24;;;;;;;1.40;1.30;;;;;;;;;;5021530;28;20025;-82
2021/05/06 12:40:52;;;;;;;8.40;1.30;;;;;;;;;;5027731;28;20052;-83
2021/05/06 12:43:32;;;;;;;1.95;1.45;;;15.40;66.60;;;;;;5012602;28;20029;-83
2021/05/06 12:46:09;;;;;;;2.08;1.25;;;15.40;66.90;;;;;;5027965;28;20037;-82
2021/05/06 12:48:42;;;;;;;2.55;1.10;;;;;;;;;;5013053;28;20025;-83
2021/05/06 12:51:09;;;;;;;1.88;1.33;;;15.40;65.30;;;;;;5027185;28;20513;-82
2021/05/06 12:53:35;;;;;;;5.10;1.55;;;15.40;67.80;;;;;;5021899;28;20044;-82
2021/05/06 12:56:01;;;;;;;5.97;1.35;;;;;;;;;;5016410;28;20414;-82
2021/05/06 12:58:31;;;;;;;3.53;1.38;;;15.60;66.50;;;;;;5027671;28;20033;-83
2021/05/06 13:00:58;;;;;;;1.63;1.00;;;;;;;;;;5029111;28;20047;-82
2021/05/06 13:03:30;;;;;;;3.72;1.52;;;15.70;69.50;;;;;;5015971;28;20034;-83
2021/05/06 13:06:03;;;;;;;2.58;1.20;;;15.80;69.10;;;;;;5016736;28;20057;-83
2021/05/06 13:08:43;;;;;;;2.50;1.02;;;15.80;67.60;;;;;;5022396;28;20045;-86
2021/05/06 13:11:14;;;;;;;2.00;1.15;;;15.90;69.40;;;;;;5018062;28;20113;-85
2021/05/06 13:13:55;;;;;;;3.60;1.92;;;15.90;70.30;;;;;;5014372;28;20117;-86
2021/05/06 13:16:36;;;;;;;1.73;1.17;;;;;;;;;;5017436;28;20126;-86
2021/05/06 13:19:07;;;;;;;3.65;1.63;;;16.10;68.10;;;;;;5043103;28;20029;-85
2021/05/06 13:21:33;;;;;;;1.38;0.98;;;16.10;65.90;;;;;;5015013;28;20403;-85
2021/05/06 13:24:01;;;;;;;3.45;1.35;;;;;;;;;;5016287;28;20065;-85
2021/05/06 13:26:30;;;;;;;1.75;1.05;;;;;;;;;;5021412;28;20037;-85
2021/05/06 13:29:01;;;;;;;0.77;0.60;;;;;;;;;;5022987;28;20457;-85
2021/05/06 13:31:31;;;;;;;2.33;1.40;;;;;;;;;;5027876;28;20155;-87
2021/05/06 13:34:22;;;;;;;5.85;2.28;;;16.00;68.90;;;;;;5012043;28;20064;-86
2021/05/06 13:37:01;;;;;;;2.65;1.83;;;;;;;;;;5024695;28;20025;-85
2021/05/06 13:39:27;;;;;;;1.35;1.20;;;;;;;;;;5013298;28;20455;-83
2021/05/06 13:41:53;;;;;;;2.90;1.27;;;;;;;;;;5016070;28;20060;-85
2021/05/06 13:44:23;;;;;;;7.15;1.60;;;15.90;69.80;;;;;;5017472;28;20490;-85
2021/05/06 13:46:53;;;;;;;3.75;1.98;;;16.00;70.90;;;;;;5027406;28;20033;-84
2021/05/06 13:49:29;;;;;;;7.47;1.55;;;16.00;74.00;;;;;;5012182;28;20367;-85
2021/05/06 13:51:56;;;;;;;5.20;2.57;;;;;;;;;;5029290;28;20072;-85
2021/05/06 13:54:23;;;;;;;11.48;2.25;;;15.90;69.70;;;;;;5015442;28;20029;-84
2021/05/06 13:56:49;;;;;;;1.40;0.90;;;;;;;;;;5024023;28;20060;-86
2021/05/06 13:59:15;;;;;;;1.13;0.70;;;;;;;;;;5027064;28;20112;-86
2021/05/06 14:01:41;;;;;;;1.38;1.08;;;;;;;;;;5027117;28;20116;-85
2021/05/06 14:04:07;;;;;;;1.55;1.08;;;;;;;;;;5024757;28;20107;-86
2021/05/06 14:06:35;;;;;;;1.83;1.02;;;15.80;69.60;;;;;;5028781;28;20028;-85
2021/05/06 14:09:01;;;;;;;1.45;0.73;;;;;;;;;;5025566;28;20037;-86
2021/05/06 14:11:27;;;;;;;1.02;0.77;;;;;;;;;;5025623;28;20033;-85
2021/05/06 14:13:57;;;;;;;1.83;1.40;;;15.80;69.10;;;;;;5027773;28;20037;-85
2021/05/06 14:16:26;;;;;;;2.53;1.00;;;;;;;;;;5027739;28;20611;-84
2021/05/06 14:18:54;;;;;;;2.00;1.67;;;;;;;;;;5011420;28;20066;-86
2021/05/06 14:21:22;;;;;;;0.52;0.52;;;;;;;;;;5027386;28;20103;-85
2021/05/06 14:23:48;;;;;;;0.38;0.38;;;;;;;;;;5025616;28;20056;-85
2021/05/06 14:26:15;;;;;;;1.15;0.60;;;;;;;;;;5029881;28;20106;-84
2021/05/06 14:28:42;;;;;;;0.98;0.60;;;15.70;69.80;;;;;;5030618;28;20621;-86
2021/05/06 14:31:09;;;;;;;1.42;0.75;;;;;;;;;;5030503;28;20433;-85
2021/05/06 14:33:35;;;;;;;1.65;1.00;;;;;;;;;;5032088;28;20052;-84
2021/05/06 14:36:01;;;;;;;0.90;0.65;;;;;;;;;;5030678;28;20494;-85
2021/05/06 14:38:27;;;;;;;0.75;0.63;;;;;;;;;;5029500;28;20031;-85
2021/05/06 14:40:53;;;;;;;1.98;0.60;;;;;;;;;;5030199;28;20045;-84
2021/05/06 14:43:19;;;;;;;1.98;0.82;;;;;;;;;;5017169;28;20033;-82
2021/05/06 14:45:45;;;;;;;10.32;0.70;;;;;;;;;;5031173;28;20493;-87
2021/05/06 14:48:12;;;;;;;0.95;0.73;;;;;;;;;;5030216;28;20037;-85
2021/05/06 14:50:38;;;;;;;1.98;1.02;;;;;;;;;;5030617;28;20108;-84
2021/05/06 14:53:05;;;;;;;3.53;0.88;;;;;;;;;;5027670;28;20124;-83
2021/05/06 14:55:30;;;;;;;1.50;0.73;;;;;;;;;;5011402;28;20037;-84
2021/05/06 14:57:56;;;;;;;1.15;0.80;;;;;;;;;;5031071;28;20029;-83
2021/05/06 15:00:23;;;;;;;1.08;0.63;;;;;;;;;;5030626;28;20667;-84
2021/05/06 15:02:49;;;;;;;1.08;0.57;;;;;;;;;;5022198;28;20046;-84
2021/05/06 15:05:17;;;;;;;0.75;0.50;;;;;;;;;;5017172;28;20041;-84
2021/05/06 15:07:43;;;;;;;0.55;0.50;;;;;;;;;;5024978;28;20039;-84
2021/05/06 15:10:11;;;;;;;0.95;0.65;;;;;;;;;;5011358;28;20033;-83
2021/05/06 15:12:37;;;;;;;;;;;;;;;;;;5030736;28;20017;-84
2021/05/06 15:15:04;;;;;;;0.65;0.40;;;15.40;70.00;;;;;;5023931;28;19928;-86
2021/05/06 15:17:30;;;;;;;0.70;0.50;;;;;;;;;;5023339;28;20021;-84
2021/05/06 15:19:56;;;;;;;0.75;0.70;;;;;;;;;;5023637;28;20061;-84
2021/05/06 15:22:24;;;;;;;2.50;0.40;;;;;;;;;;5024816;28;20723;-83
2021/05/06 15:24:50;;;;;;;0.22;0.22;;;;;;;;;;5026466;28;20053;-85
2021/05/06 15:27:16;;;;;;;0.50;0.50;;;;;;;;;;5023710;28;20810;-84
2021/05/06 15:29:43;;;;;;;2.15;0.60;;;;;;;;;;5025794;28;20057;-85
2021/05/06 15:32:10;;;;;;;3.67;2.70;;;;;;;;;;5022850;28;20029;-84
2021/05/06 15:34:36;;;;;;;1.95;0.73;;;;;;;;;;5027837;28;20039;-85
2021/05/06 15:37:02;;;;;;;2.08;0.47;;;;;;;;;;5027097;28;20502;-87
2021/05/06 15:39:28;;;;;;;0.60;0.60;;;;;;;;;;5022432;28;20033;-85
2021/05/06 15:41:54;;;;;;;4.20;1.75;;;;;;;;;;5025692;28;20437;-83
2021/05/06 15:44:20;;;;;;;1.05;0.60;;;;;;;;;;5025166;28;20029;-85
2021/05/06 15:46:46;;;;;;;0.90;0.52;;;;;;;;;;5027485;28;20029;-84
2021/05/06 15:49:12;;;;;;;1.35;0.95;;;;;;;;;;5025471;28;20073;-84
2021/05/06 15:51:39;;;;;;;5.28;1.02;;;;;;;;;;5019444;28;20494;-84
2021/05/06 15:54:06;;;;;;;2.20;1.07;;;;;;;;;;5021977;28;20034;-84
2021/05/06 15:56:32;;;;;;;1.05;0.75;;;;;;;;;;5020072;28;20030;-84
2021/05/06 15:59:00;;;;;;;0.68;0.47;;;;;;;;;;5014966;28;20035;-83
2021/05/06 16:01:26;;;;;;;0.63;0.50;;;;;;;;;;5026734;28;20064;-84
2021/05/06 16:04:00;;;;;;;0.50;0.50;;;;;;;;;;5022667;28;20052;-84
2021/05/06 16:06:26;;;;;;;0.40;0.40;;;;;;;;;;5023432;28;20034;-85
2021/05/06 16:08:52;;;;;;;0.40;0.40;;;;;;;;;;5022982;28;20032;-85
2021/05/06 16:11:18;;;;;;;0.82;0.45;;;;;;;;;;5019842;28;20037;-85
2021/05/06 16:13:44;;;;;;;1.42;0.45;;;;;;;;;;5025695;28;20026;-84
2021/05/06 16:16:10;;;;;;;0.50;0.50;;;;;;;;;;5024055;28;20437;-85
2021/05/06 16:18:39;;;;;;;0.80;0.80;;;;;;;;;;5027357;28;20079;-85
2021/05/06 16:21:06;;;;;;;4.68;0.65;;;;;;;;;;5023884;28;20124;-84
2021/05/06 16:23:32;;;;;;;1.02;0.60;;;;;;;;;;5024769;28;20045;-84
2021/05/06 16:25:58;;;;;;;1.45;1.15;;;;;;;;;;5020666;28;20061;-85
2021/05/06 16:28:24;;;;;;;1.05;0.73;;;;;;;;;;5021076;28;20060;-85
2021/05/06 16:30:50;;;;;;;2.72;1.13;;;;;;;;;;5018418;28;20042;-85
2021/05/06 16:33:16;;;;;;;1.83;0.77;;;;;;;;;;5024411;28;20033;-84
2021/05/06 16:35:52;;;;;;;2.25;0.60;;;;;;;;;;5027363;28;20045;-84
2021/05/06 16:38:19;;;;;;;0.83;0.60;;;;;;;;;;5027471;28;20033;-86
2021/05/06 16:45:42;;;;;;;0.65;0.43;;;15.10;69.70;;;;;;5028388;28;20116;-84
2021/05/06 16:48:12;;;;;;;0.57;0.40;;;15.00;70.40;;;;;;5016407;28;20034;-84
2021/05/06 16:50:39;;;;;;;2.30;0.70;;;15.10;70.50;;;;;;5021716;28;20033;-83
2021/05/06 16:53:05;;;;;;;1.02;0.73;;;;;;;;;;5028423;28;20063;-85
2021/05/06 16:55:33;;;;;;;0.50;0.50;;;;;;;;;;5030549;28;20052;-93
2021/05/06 16:57:59;;;;;;;0.93;0.93;;;;;;;;;;5030602;28;20029;-92
2021/05/06 17:00:25;;;;;;;3.20;0.88;;;;;;;;;;5030894;28;20494;-91
2021/05/06 17:02:52;;;;;;;1.70;1.10;;;;;;;;;;5030808;28;20029;-90
2021/05/06 17:05:18;;;;;;;1.50;0.90;;;;;;;;;;5030582;28;20585;-89
2021/05/06 17:07:45;;;;;;;1.52;0.68;;;;;;;;;;5030487;28;20041;-90
2021/05/06 17:10:12;;;;;;;0.80;0.77;;;;;;;;;;5047757;28;20498;-92
2021/05/06 17:12:38;;;;;;;7.10;4.47;;;;;;;;;;5032509;28;20506;-93
2021/05/06 17:15:04;;;;;;;3.28;2.10;;;;;;;;;;5030591;28;20072;-94
2021/05/06 17:17:30;;;;;;;3.37;2.30;;;;;;;;;;5030888;28;20026;-94
2021/05/06 17:19:57;;;;;;;1.48;1.20;;;;;;;;;;5031237;28;20029;-94
2021/05/06 17:22:23;;;;;;;1.27;0.93;;;;;;;;;;5031050;28;20036;-91
2021/05/06 17:24:49;;;;;;;12.95;4.80;;;;;;;;;;5026820;28;20562;-95
2021/05/06 17:27:15;;;;;;;2.33;1.23;;;;;;;;;;5025686;28;20052;-93
2021/05/06 17:29:41;;;;;;;52.05;15.80;;;;;;;;;;5018892;28;20133;-93
2021/05/06 17:32:07;;;;;;;5.18;2.28;;;;;;;;;;5031128;28;20490;-93
2021/05/06 17:34:33;;;;;;;7.70;2.65;;;;;;;;;;5031009;28;20414;-92
2021/05/06 17:36:59;;;;;;;2.13;0.98;;;;;;;;;;5039975;28;20030;-93